• Join FlightAware (Why Join?)
  • Login
  • US Flag 
07:05PM EDT


 

Airport Tracker/Info


-or-


 

Live Flight TrackerFlight Track Log ✈ EJA922 ✈ 21-Aug-2013 ✈ KASE - KLAX

Flight Track Log - Related Links

Times and Time Zones

All times are in EDT time to prevent confusion due to time zone crossing. See the EJA922 flight status page for this flight to view local times or setup timezone preferences in your user account.

Time Position Orientation Groundspeed Altitude Reporting Facility
EDT Latitude Longitude Course Direction KTS MPH feet Rate Location/Type
12:21PM 39.2881 -106.9756 290° West 245 282 13,700  Level Denver Center
12:22PM 39.3156 -107.0653 292° West 274 315 17,000 1,980 Climbing Denver Center
12:23PM 39.3603 -107.1667 300° West 327 376 17,900 1,680 Climbing Denver Center
12:24PM 39.3461 -107.2967 262° West 359 413 20,500 2,280 Climbing Denver Center
12:25PM 39.3208 -107.4272 256° West 369 425 22,700 1,980 Climbing Denver Center
12:26PM 39.2698 -107.7041 252° West  Level FlightAware Approximate
12:26PM 39.2961 -107.5619 257° West 382 440 24,700  Level Denver Center
12:27PM 39.2706 -107.7011 257° West 395 455 26,500 1,740 Climbing Denver Center
12:28PM 39.2347 -107.8358 251° West 405 466 28,300 1,620 Climbing Denver Center
12:29PM 39.1711 -107.9903 242° Southwest 412 474 29,900 1,500 Climbing Denver Center
12:30PM 39.1111 -108.1331 242° Southwest 420 483 31,400 1,500 Climbing Denver Center
12:31PM 39.0542 -108.2672 241° Southwest 426 490 33,000 1,320 Climbing Denver Center
12:32PM 39.0006 -108.3994 242° Southwest 445 512 34,200 1,740 Climbing Denver Center
12:33PM 38.9294 -108.5639 241° Southwest 447 514 36,700 2,400 Climbing Denver Center
12:35PM 38.8747 -108.6947 242° Southwest 421 484 39,200 1,560 Climbing Denver Center
12:36PM 38.8197 -108.8247 242° Southwest 417 480 40,000 360 Climbing Denver Center
12:37PM 38.7558 -108.9767 242° Southwest 451 519 40,000  Level Denver Center
12:38PM 38.6914 -109.1264 241° Southwest 479 551 40,000  Level Denver Center
12:39PM 38.6208 -109.2911 241° Southwest 491 565 40,000  Level Denver Center
12:40PM 38.5611 -109.4286 241° Southwest 486 559 40,000  Level Denver Center
12:41PM 38.4878 -109.5958 241° Southwest 483 556 40,000  Level Denver Center
12:42PM 38.4242 -109.7408 241° Southwest 488 562 40,000  Level Denver Center
12:43PM 38.3508 -109.9092 241° Southwest 488 562 40,000  Level Denver Center
12:44PM 38.2858 -110.0597 241° Southwest 486 559 40,000  Level Denver Center
12:45PM 38.2189 -110.2083 240° Southwest 484 557 40,000  Level Denver Center
12:46PM 38.1519 -110.3581 240° Southwest 487 560 40,000  Level Denver Center
12:47PM 38.0861 -110.5094 241° Southwest 490 564 40,000  Level Salt Lake Center
12:48PM 38.0181 -110.6600 240° Southwest 492 566 40,000  Level Salt Lake Center
12:49PM 37.9358 -110.8389 240° Southwest 490 564 40,000  Level Denver Center
12:50PM 37.8683 -110.9878 240° Southwest 488 562 40,000  Level Denver Center
12:51PM 37.8014 -111.1356 240° Southwest 486 559 40,000  Level Denver Center
12:52PM 37.7328 -111.2828 240° Southwest 486 559 40,000  Level Denver Center
12:53PM 37.6669 -111.4278 240° Southwest 481 554 40,000  Level Denver Center
12:54PM 37.5867 -111.6006 240° Southwest 477 549 40,000  Level Denver Center
12:55PM 37.5194 -111.7450 240° Southwest 476 548 40,000  Level Denver Center
12:56PM 37.4525 -111.8886 240° Southwest 476 548 40,000  Level Denver Center
12:57PM 37.3844 -112.0317 239° Southwest 476 548 40,000  Level Denver Center
12:58PM 37.3133 -112.1717 237° Southwest 474 545 40,000  Level Denver Center
12:59PM 37.2364 -112.3075 235° Southwest 473 544 40,000  Level Salt Lake Center
01:00PM 37.1608 -112.4444 235° Southwest 474 545 40,000  Level Salt Lake Center
01:01PM 37.0844 -112.5800 235° Southwest 474 545 40,000  Level Salt Lake Center
01:02PM 37.0081 -112.7158 235° Southwest 474 545 40,000  Level Salt Lake Center
01:03PM 36.9164 -112.8797 235° Southwest 476 548 40,000  Level Salt Lake Center
01:04PM 36.8386 -113.0156 234° Southwest 478 550 40,000  Level Salt Lake Center
01:06PM 36.7556 -113.1439 231° Southwest 477 549 40,000  Level Salt Lake Center
01:07PM 36.6736 -113.2728 232° Southwest 474 545 40,000  Level Salt Lake Center
01:08PM 36.5911 -113.4033 232° Southwest 478 550 40,000  Level Salt Lake Center
01:09PM 36.4561 -113.6136 231° Southwest 480 552 40,000  Level Los Angeles Center
01:10PM 36.3736 -113.7439 232° Southwest 480 552 40,000  Level Los Angeles Center
01:11PM 36.2900 -113.8747 232° Southwest 482 555 40,000  Level Los Angeles Center
01:12PM 36.2072 -114.0031 231° Southwest 478 550 40,000  Level Los Angeles Center
01:13PM 36.1231 -114.1319 231° Southwest 480 552 40,000  Level Los Angeles Center
01:14PM 36.0389 -114.2614 231° Southwest 481 554 40,000  Level Los Angeles Center
01:15PM 35.9369 -114.4156 231° Southwest 481 554 40,000  Level Los Angeles Center
01:16PM 35.8703 -114.5192 232° Southwest 481 554 40,000  Level Los Angeles Center
01:17PM 35.7856 -114.6475 231° Southwest 481 554 40,000  Level Los Angeles Center
01:18PM 35.6839 -114.8019 231° Southwest 480 552 40,000  Level Los Angeles Center
01:19PM 35.6000 -114.9300 231° Southwest 480 552 40,000  Level Los Angeles Center
01:20PM 35.5167 -115.0564 231° Southwest 476 548 40,000  Level Los Angeles Center
01:22PM 35.4306 -115.1836 230° Southwest 479 551 40,000 -120 Level Los Angeles Center
01:23PM 35.3281 -115.3381 231° Southwest 484 557 39,800 -960 Descending Los Angeles Center
01:24PM 35.2414 -115.4650 230° Southwest 484 557 38,100 -1,800 Descending Los Angeles Center
01:25PM 35.1672 -115.5781 231° Southwest 479 551 36,200 -1,740 Descending Los Angeles Center
01:26PM 35.0969 -115.6814 230° Southwest 478 550 34,600 -1,080 Descending Los Angeles Center
01:27PM 34.9797 -115.8528 230° Southwest 480 552 34,000 -300 Descending Los Angeles Center
01:28PM 34.9103 -115.9542 230° Southwest 483 556 34,000  Level Los Angeles Center
01:29PM 34.8064 -116.1061 230° Southwest 486 559 34,000  Level Los Angeles Center
01:30PM 34.7203 -116.2308 230° Southwest 482 555 34,000  Level Los Angeles Center
01:31PM 34.6333 -116.3569 230° Southwest 485 558 34,000 -600 Level Los Angeles Center
01:32PM 34.5458 -116.4822 230° Southwest 486 559 32,800 -2,220 Descending Los Angeles Center
01:33PM 34.4397 -116.6342 230° Southwest 490 564 29,500 -2,700 Descending Los Angeles Center
01:34PM 34.3508 -116.7625 230° Southwest 495 570 26,700 -2,640 Descending Los Angeles Center
01:35PM 34.2503 -116.9031 229° Southwest 461 531 23,500 -2,640 Descending Los Angeles Center
01:36PM 34.1803 -117.0042 230° Southwest 400 460 21,300 -2,220 Descending Los Angeles Center
01:37PM 34.1167 -117.1000 231° Southwest 360 414 19,400 -2,040 Descending Southern California TRACON
01:38PM 34.0667 -117.2000 239° Southwest 351 404 17,600 -1,560 Descending Southern California TRACON
01:39PM 34.0333 -117.3000 248° West 362 417 16,300 -1,560 Descending Southern California TRACON
01:40PM 34.0333 -117.4333 270° West 356 410 14,500 -1,620 Descending Southern California TRACON
01:41PM 34.0167 -117.5500 260° West 336 387 13,100 -1,320 Descending Southern California TRACON
01:42PM 34.0167 -117.6500 270° West 343 395 11,900 -1,380 Descending Southern California TRACON
01:43PM 34.0000 -117.7500 259° West 280 322 10,400 -1,560 Descending Southern California TRACON
01:44PM 33.9833 -117.8333 256° West 285 328 8,800 -1,500 Descending Southern California TRACON
01:45PM 33.9833 -117.9333 270° West 254 292 7,400 -1,380 Descending Southern California TRACON
01:46PM 33.9833 -118.0000 270° West 236 272 6,100 -1,380 Descending Southern California TRACON
01:47PM 33.9667 -118.0833 256° West 238 274 4,700 -1,260 Descending Southern California TRACON
01:48PM 33.9667 -118.1667 270° West 226 260 3,600 -1,080 Descending Southern California TRACON
01:49PM 33.9553 -118.2017 249° West 228 262 3,000 -1,020 Descending Los Angeles Center
01:50PM 33.9486 -118.2700 263° West 218 251 2,000 -540 Descending Los Angeles Center
01:51PM 33.9442 -118.3267 265° West 190 219 2,000  Level Los Angeles Center
01:52PM 33.9367 -118.3914 262° West 190 219 2,000 120 Level Los Angeles Center
01:54PM 33.8500 -118.4833 221° Southwest 240 276 2,600 900 Climbing Southern California TRACON
01:55PM 33.8333 -118.4167 107° East 243 280 5,000 1,140 Climbing Southern California TRACON
01:56PM 33.8500 -118.3500 73° East 240 276 5,000  Level Southern California TRACON
01:57PM 33.8500 -118.2667 90° East 228 262 5,000  Level Southern California TRACON
01:58PM 33.8667 -118.1975 74° East 229 264 5,000  Level Los Angeles Center
01:59PM 33.8833 -118.1167 76° East 219 252 5,000  Level Southern California TRACON
02:00PM 33.8833 -118.0500 90° East 198 228 5,000  Level Southern California TRACON
02:01PM 33.9167 -118.0167 40° Northeast 208 239 5,000 -120 Level Southern California TRACON
02:02PM 33.9667 -118.0500 331° Northwest 206 237 4,800 -420 Descending Southern California TRACON
02:03PM 33.9667 -118.1167 270° West 196 226 4,200 -780 Descending Southern California TRACON
02:04PM 33.9500 -118.1833 253° West 197 227 3,200 -960 Descending Southern California TRACON
02:05PM 33.9500 -118.2500 270° West 185 213 2,200 -900 Descending Southern California TRACON
02:06PM 33.9500 -118.3000 270° West 139 160 1,500 -720 Descending Southern California TRACON
02:07PM 33.9500 -118.3333 270° West 130 150 900 -540 Descending Southern California TRACON
02:09PM 33.9369 -118.3969 256° West 133 153 300 -480 Descending Los Angeles Center